sensor_id;sensor_type;location;lat;lon;timestamp;P1;durP1;ratioP1;P2;durP2;ratioP2
18748;SDS011;9503;53.560;10.246;2023-07-24T00:00:15;3.90;;;3.50;;
18748;SDS011;9503;53.560;10.246;2023-07-24T00:02:41;3.78;;;3.00;;
18748;SDS011;9503;53.560;10.246;2023-07-24T00:05:08;3.42;;;3.13;;
18748;SDS011;9503;53.560;10.246;2023-07-24T00:07:35;3.30;;;3.08;;
18748;SDS011;9503;53.560;10.246;2023-07-24T00:10:02;3.50;;;3.20;;
18748;SDS011;9503;53.560;10.246;2023-07-24T00:12:29;3.47;;;3.17;;
18748;SDS011;9503;53.560;10.246;2023-07-24T00:14:58;3.75;;;3.33;;
18748;SDS011;9503;53.560;10.246;2023-07-24T00:17:24;5.20;;;3.35;;
18748;SDS011;9503;53.560;10.246;2023-07-24T00:19:51;4.13;;;3.00;;
18748;SDS011;9503;53.560;10.246;2023-07-24T00:22:18;4.22;;;3.60;;
18748;SDS011;9503;53.560;10.246;2023-07-24T00:24:44;3.70;;;3.40;;
18748;SDS011;9503;53.560;10.246;2023-07-24T00:27:11;4.15;;;3.75;;
18748;SDS011;9503;53.560;10.246;2023-07-24T00:29:39;3.70;;;3.25;;
18748;SDS011;9503;53.560;10.246;2023-07-24T00:32:07;3.65;;;3.25;;
18748;SDS011;9503;53.560;10.246;2023-07-24T00:34:34;6.07;;;3.95;;
18748;SDS011;9503;53.560;10.246;2023-07-24T00:37:01;3.80;;;3.45;;
18748;SDS011;9503;53.560;10.246;2023-07-24T00:39:27;3.53;;;3.10;;
18748;SDS011;9503;53.560;10.246;2023-07-24T00:41:54;3.92;;;3.53;;
18748;SDS011;9503;53.560;10.246;2023-07-24T00:44:21;3.72;;;3.22;;
18748;SDS011;9503;53.560;10.246;2023-07-24T00:46:48;4.00;;;3.38;;
18748;SDS011;9503;53.560;10.246;2023-07-24T00:49:16;4.43;;;3.55;;
18748;SDS011;9503;53.560;10.246;2023-07-24T00:51:43;5.25;;;3.60;;
18748;SDS011;9503;53.560;10.246;2023-07-24T00:54:10;7.35;;;3.45;;
18748;SDS011;9503;53.560;10.246;2023-07-24T00:56:38;4.47;;;3.50;;
18748;SDS011;9503;53.560;10.246;2023-07-24T00:59:04;4.38;;;3.60;;
18748;SDS011;9503;53.560;10.246;2023-07-24T01:01:31;3.75;;;3.33;;
18748;SDS011;9503;53.560;10.246;2023-07-24T01:03:58;5.15;;;3.75;;
18748;SDS011;9503;53.560;10.246;2023-07-24T01:06:26;6.38;;;4.03;;
18748;SDS011;9503;53.560;10.246;2023-07-24T01:08:52;5.20;;;3.92;;
18748;SDS011;9503;53.560;10.246;2023-07-24T01:11:19;3.72;;;3.42;;
18748;SDS011;9503;53.560;10.246;2023-07-24T01:13:51;3.80;;;3.50;;
18748;SDS011;9503;53.560;10.246;2023-07-24T01:16:23;7.10;;;4.40;;
18748;SDS011;9503;53.560;10.246;2023-07-24T01:18:56;5.18;;;3.72;;
18748;SDS011;9503;53.560;10.246;2023-07-24T01:21:27;4.35;;;3.58;;
18748;SDS011;9503;53.560;10.246;2023-07-24T01:24:03;4.93;;;4.20;;
18748;SDS011;9503;53.560;10.246;2023-07-24T01:26:42;4.13;;;3.72;;
18748;SDS011;9503;53.560;10.246;2023-07-24T01:29:09;6.00;;;4.05;;
18748;SDS011;9503;53.560;10.246;2023-07-24T01:31:36;4.10;;;3.53;;
18748;SDS011;9503;53.560;10.246;2023-07-24T01:34:02;3.90;;;3.55;;
18748;SDS011;9503;53.560;10.246;2023-07-24T01:36:29;5.57;;;3.53;;
18748;SDS011;9503;53.560;10.246;2023-07-24T01:38:56;6.50;;;4.10;;
18748;SDS011;9503;53.560;10.246;2023-07-24T01:41:23;4.57;;;3.45;;
18748;SDS011;9503;53.560;10.246;2023-07-24T01:43:51;5.43;;;3.70;;
18748;SDS011;9503;53.560;10.246;2023-07-24T01:46:18;4.28;;;3.88;;
18748;SDS011;9503;53.560;10.246;2023-07-24T01:48:45;4.93;;;3.92;;
18748;SDS011;9503;53.560;10.246;2023-07-24T01:51:12;5.15;;;4.18;;
18748;SDS011;9503;53.560;10.246;2023-07-24T01:53:38;5.63;;;4.22;;
18748;SDS011;9503;53.560;10.246;2023-07-24T01:56:05;5.90;;;4.20;;
18748;SDS011;9503;53.560;10.246;2023-07-24T01:58:31;5.97;;;4.32;;
18748;SDS011;9503;53.560;10.246;2023-07-24T02:00:59;3.88;;;3.55;;
18748;SDS011;9503;53.560;10.246;2023-07-24T02:03:26;4.93;;;3.90;;
18748;SDS011;9503;53.560;10.246;2023-07-24T02:05:53;4.55;;;4.00;;
18748;SDS011;9503;53.560;10.246;2023-07-24T02:08:19;5.47;;;4.18;;
18748;SDS011;9503;53.560;10.246;2023-07-24T02:10:48;6.07;;;3.88;;
18748;SDS011;9503;53.560;10.246;2023-07-24T02:13:15;6.65;;;4.50;;
18748;SDS011;9503;53.560;10.246;2023-07-24T02:15:42;6.20;;;4.25;;
18748;SDS011;9503;53.560;10.246;2023-07-24T02:18:10;4.97;;;4.25;;
18748;SDS011;9503;53.560;10.246;2023-07-24T02:20:36;4.22;;;3.83;;
18748;SDS011;9503;53.560;10.246;2023-07-24T02:23:03;5.30;;;4.25;;
18748;SDS011;9503;53.560;10.246;2023-07-24T02:25:30;4.30;;;3.90;;
18748;SDS011;9503;53.560;10.246;2023-07-24T02:27:56;5.60;;;4.20;;
18748;SDS011;9503;53.560;10.246;2023-07-24T02:30:23;4.72;;;3.95;;
18748;SDS011;9503;53.560;10.246;2023-07-24T02:32:49;4.72;;;4.22;;
18748;SDS011;9503;53.560;10.246;2023-07-24T02:35:17;4.45;;;4.05;;
18748;SDS011;9503;53.560;10.246;2023-07-24T02:37:44;4.70;;;4.30;;
18748;SDS011;9503;53.560;10.246;2023-07-24T02:40:11;5.40;;;4.00;;
18748;SDS011;9503;53.560;10.246;2023-07-24T02:42:38;6.78;;;4.50;;
18748;SDS011;9503;53.560;10.246;2023-07-24T02:45:06;6.20;;;4.57;;
18748;SDS011;9503;53.560;10.246;2023-07-24T02:47:35;4.82;;;4.20;;
18748;SDS011;9503;53.560;10.246;2023-07-24T02:50:02;4.85;;;4.45;;
18748;SDS011;9503;53.560;10.246;2023-07-24T02:52:31;4.55;;;4.15;;
18748;SDS011;9503;53.560;10.246;2023-07-24T02:54:57;5.35;;;4.50;;
18748;SDS011;9503;53.560;10.246;2023-07-24T02:57:24;4.90;;;4.45;;
18748;SDS011;9503;53.560;10.246;2023-07-24T02:59:51;4.30;;;3.83;;
18748;SDS011;9503;53.560;10.246;2023-07-24T03:02:17;4.55;;;4.10;;
18748;SDS011;9503;53.560;10.246;2023-07-24T03:04:44;8.23;;;4.30;;
18748;SDS011;9503;53.560;10.246;2023-07-24T03:07:10;4.95;;;4.25;;
18748;SDS011;9503;53.560;10.246;2023-07-24T03:09:38;5.35;;;3.95;;
18748;SDS011;9503;53.560;10.246;2023-07-24T03:12:05;4.60;;;3.83;;
18748;SDS011;9503;53.560;10.246;2023-07-24T03:14:32;4.95;;;4.13;;
18748;SDS011;9503;53.560;10.246;2023-07-24T03:16:59;4.53;;;4.10;;
18748;SDS011;9503;53.560;10.246;2023-07-24T03:19:26;4.63;;;4.22;;
18748;SDS011;9503;53.560;10.246;2023-07-24T03:21:53;4.47;;;4.07;;
18748;SDS011;9503;53.560;10.246;2023-07-24T03:24:19;4.75;;;4.20;;
18748;SDS011;9503;53.560;10.246;2023-07-24T03:26:47;5.03;;;4.53;;
18748;SDS011;9503;53.560;10.246;2023-07-24T03:29:14;6.18;;;4.88;;
18748;SDS011;9503;53.560;10.246;2023-07-24T03:31:41;5.57;;;4.57;;
18748;SDS011;9503;53.560;10.246;2023-07-24T03:34:07;5.60;;;4.60;;
18748;SDS011;9503;53.560;10.246;2023-07-24T03:36:34;5.40;;;4.30;;
18748;SDS011;9503;53.560;10.246;2023-07-24T03:39:01;5.13;;;4.63;;
18748;SDS011;9503;53.560;10.246;2023-07-24T03:41:28;7.05;;;5.20;;
18748;SDS011;9503;53.560;10.246;2023-07-24T03:43:56;5.07;;;4.50;;
18748;SDS011;9503;53.560;10.246;2023-07-24T03:46:23;6.07;;;4.82;;
18748;SDS011;9503;53.560;10.246;2023-07-24T03:48:50;4.70;;;4.20;;
18748;SDS011;9503;53.560;10.246;2023-07-24T03:51:17;6.80;;;4.82;;
18748;SDS011;9503;53.560;10.246;2023-07-24T03:53:44;6.25;;;4.57;;
18748;SDS011;9503;53.560;10.246;2023-07-24T03:56:10;5.55;;;4.45;;
18748;SDS011;9503;53.560;10.246;2023-07-24T03:58:37;6.53;;;5.05;;
18748;SDS011;9503;53.560;10.246;2023-07-24T04:01:06;4.88;;;4.40;;
18748;SDS011;9503;53.560;10.246;2023-07-24T04:03:33;5.85;;;3.90;;
18748;SDS011;9503;53.560;10.246;2023-07-24T04:06:00;6.80;;;4.75;;
18748;SDS011;9503;53.560;10.246;2023-07-24T04:08:26;6.05;;;4.70;;
18748;SDS011;9503;53.560;10.246;2023-07-24T04:10:53;7.97;;;4.90;;
18748;SDS011;9503;53.560;10.246;2023-07-24T04:13:21;5.22;;;4.72;;
18748;SDS011;9503;53.560;10.246;2023-07-24T04:15:47;5.80;;;4.75;;
18748;SDS011;9503;53.560;10.246;2023-07-24T04:18:16;5.47;;;4.65;;
18748;SDS011;9503;53.560;10.246;2023-07-24T04:20:43;8.30;;;4.55;;
18748;SDS011;9503;53.560;10.246;2023-07-24T04:23:09;6.03;;;4.70;;
18748;SDS011;9503;53.560;10.246;2023-07-24T04:25:36;7.88;;;4.80;;
18748;SDS011;9503;53.560;10.246;2023-07-24T04:28:03;6.18;;;4.95;;
18748;SDS011;9503;53.560;10.246;2023-07-24T04:30:30;6.07;;;4.78;;
18748;SDS011;9503;53.560;10.246;2023-07-24T04:32:57;4.88;;;4.38;;
18748;SDS011;9503;53.560;10.246;2023-07-24T04:35:26;5.13;;;4.63;;
18748;SDS011;9503;53.560;10.246;2023-07-24T04:37:52;5.25;;;4.75;;
18748;SDS011;9503;53.560;10.246;2023-07-24T04:40:19;5.57;;;4.30;;
18748;SDS011;9503;53.560;10.246;2023-07-24T04:42:46;5.80;;;5.05;;
18748;SDS011;9503;53.560;10.246;2023-07-24T04:45:12;4.97;;;4.50;;
18748;SDS011;9503;53.560;10.246;2023-07-24T04:47:39;6.03;;;5.18;;
18748;SDS011;9503;53.560;10.246;2023-07-24T04:50:06;7.60;;;4.88;;
18748;SDS011;9503;53.560;10.246;2023-07-24T04:52:34;7.60;;;5.20;;
18748;SDS011;9503;53.560;10.246;2023-07-24T04:55:01;5.80;;;5.00;;
18748;SDS011;9503;53.560;10.246;2023-07-24T04:57:27;5.05;;;4.55;;
18748;SDS011;9503;53.560;10.246;2023-07-24T04:59:54;6.75;;;5.20;;
18748;SDS011;9503;53.560;10.246;2023-07-24T05:02:20;7.47;;;4.82;;
18748;SDS011;9503;53.560;10.246;2023-07-24T05:04:47;5.95;;;4.55;;
18748;SDS011;9503;53.560;10.246;2023-07-24T05:07:14;5.88;;;4.47;;
18748;SDS011;9503;53.560;10.246;2023-07-24T05:09:42;6.47;;;4.45;;
18748;SDS011;9503;53.560;10.246;2023-07-24T05:12:09;5.50;;;4.47;;
18748;SDS011;9503;53.560;10.246;2023-07-24T05:14:35;6.32;;;4.68;;
18748;SDS011;9503;53.560;10.246;2023-07-24T05:17:02;5.28;;;4.72;;
18748;SDS011;9503;53.560;10.246;2023-07-24T05:19:29;7.47;;;4.40;;
18748;SDS011;9503;53.560;10.246;2023-07-24T05:21:55;5.70;;;4.53;;
18748;SDS011;9503;53.560;10.246;2023-07-24T05:24:22;6.18;;;4.47;;
18748;SDS011;9503;53.560;10.246;2023-07-24T05:26:50;5.68;;;4.32;;
18748;SDS011;9503;53.560;10.246;2023-07-24T05:29:17;5.30;;;4.22;;
18748;SDS011;9503;53.560;10.246;2023-07-24T05:31:43;7.50;;;5.03;;
18748;SDS011;9503;53.560;10.246;2023-07-24T05:34:10;6.47;;;4.72;;
18748;SDS011;9503;53.560;10.246;2023-07-24T05:36:36;5.32;;;4.57;;
18748;SDS011;9503;53.560;10.246;2023-07-24T05:39:03;5.43;;;4.28;;
18748;SDS011;9503;53.560;10.246;2023-07-24T05:41:30;5.45;;;4.25;;
18748;SDS011;9503;53.560;10.246;2023-07-24T05:43:58;6.43;;;4.15;;
18748;SDS011;9503;53.560;10.246;2023-07-24T05:46:24;5.80;;;4.05;;
18748;SDS011;9503;53.560;10.246;2023-07-24T05:48:51;7.53;;;4.70;;
18748;SDS011;9503;53.560;10.246;2023-07-24T05:51:17;5.63;;;4.35;;
18748;SDS011;9503;53.560;10.246;2023-07-24T05:53:44;6.78;;;3.95;;
18748;SDS011;9503;53.560;10.246;2023-07-24T05:56:11;5.53;;;4.35;;
18748;SDS011;9503;53.560;10.246;2023-07-24T05:58:38;7.07;;;4.40;;
18748;SDS011;9503;53.560;10.246;2023-07-24T06:01:06;4.80;;;4.30;;
18748;SDS011;9503;53.560;10.246;2023-07-24T06:03:35;6.93;;;4.10;;
18748;SDS011;9503;53.560;10.246;2023-07-24T06:06:02;5.43;;;4.50;;
18748;SDS011;9503;53.560;10.246;2023-07-24T06:08:28;5.78;;;4.30;;
18748;SDS011;9503;53.560;10.246;2023-07-24T06:10:55;4.50;;;4.03;;
18748;SDS011;9503;53.560;10.246;2023-07-24T06:13:21;4.65;;;4.05;;
18748;SDS011;9503;53.560;10.246;2023-07-24T06:15:48;4.72;;;4.15;;
18748;SDS011;9503;53.560;10.246;2023-07-24T06:18:17;5.80;;;4.47;;
18748;SDS011;9503;53.560;10.246;2023-07-24T06:20:44;6.07;;;4.57;;
18748;SDS011;9503;53.560;10.246;2023-07-24T06:23:11;5.50;;;4.35;;
18748;SDS011;9503;53.560;10.246;2023-07-24T06:25:37;4.68;;;4.22;;
18748;SDS011;9503;53.560;10.246;2023-07-24T06:28:04;5.72;;;4.43;;
18748;SDS011;9503;53.560;10.246;2023-07-24T06:30:30;4.60;;;4.15;;
18748;SDS011;9503;53.560;10.246;2023-07-24T06:32:57;6.47;;;3.95;;
18748;SDS011;9503;53.560;10.246;2023-07-24T06:35:25;4.50;;;4.10;;
18748;SDS011;9503;53.560;10.246;2023-07-24T06:37:52;4.28;;;3.88;;
18748;SDS011;9503;53.560;10.246;2023-07-24T06:40:18;4.75;;;4.35;;
18748;SDS011;9503;53.560;10.246;2023-07-24T06:42:45;4.78;;;3.92;;
18748;SDS011;9503;53.560;10.246;2023-07-24T06:45:12;4.50;;;3.97;;
18748;SDS011;9503;53.560;10.246;2023-07-24T06:47:38;5.32;;;4.10;;
18748;SDS011;9503;53.560;10.246;2023-07-24T06:50:05;4.45;;;3.80;;
18748;SDS011;9503;53.560;10.246;2023-07-24T06:52:34;5.45;;;4.20;;
18748;SDS011;9503;53.560;10.246;2023-07-24T06:55:01;4.57;;;3.78;;
18748;SDS011;9503;53.560;10.246;2023-07-24T06:57:28;4.35;;;3.70;;
18748;SDS011;9503;53.560;10.246;2023-07-24T06:59:55;4.72;;;3.65;;
18748;SDS011;9503;53.560;10.246;2023-07-24T07:02:21;4.35;;;3.65;;
18748;SDS011;9503;53.560;10.246;2023-07-24T07:04:48;4.35;;;3.78;;
18748;SDS011;9503;53.560;10.246;2023-07-24T07:07:14;5.60;;;4.20;;
18748;SDS011;9503;53.560;10.246;2023-07-24T07:09:42;4.10;;;3.70;;
18748;SDS011;9503;53.560;10.246;2023-07-24T07:12:09;4.53;;;3.75;;
18748;SDS011;9503;53.560;10.246;2023-07-24T07:14:36;4.28;;;3.55;;
18748;SDS011;9503;53.560;10.246;2023-07-24T07:17:02;4.18;;;3.78;;
18748;SDS011;9503;53.560;10.246;2023-07-24T07:19:29;4.57;;;3.80;;
18748;SDS011;9503;53.560;10.246;2023-07-24T07:21:56;3.63;;;3.33;;
18748;SDS011;9503;53.560;10.246;2023-07-24T07:24:23;4.47;;;3.67;;
18748;SDS011;9503;53.560;10.246;2023-07-24T07:26:51;5.10;;;4.60;;
18748;SDS011;9503;53.560;10.246;2023-07-24T07:29:18;4.10;;;3.70;;
18748;SDS011;9503;53.560;10.246;2023-07-24T07:31:44;6.80;;;3.25;;
18748;SDS011;9503;53.560;10.246;2023-07-24T07:34:11;3.50;;;3.20;;
18748;SDS011;9503;53.560;10.246;2023-07-24T07:36:38;4.10;;;3.45;;
18748;SDS011;9503;53.560;10.246;2023-07-24T07:39:04;4.05;;;3.60;;
18748;SDS011;9503;53.560;10.246;2023-07-24T07:41:31;3.72;;;3.42;;
18748;SDS011;9503;53.560;10.246;2023-07-24T07:43:59;3.92;;;3.25;;
18748;SDS011;9503;53.560;10.246;2023-07-24T07:46:25;3.40;;;3.10;;
18748;SDS011;9503;53.560;10.246;2023-07-24T07:48:52;3.42;;;3.05;;
18748;SDS011;9503;53.560;10.246;2023-07-24T07:51:19;6.65;;;3.63;;
18748;SDS011;9503;53.560;10.246;2023-07-24T07:53:45;4.95;;;3.33;;
18748;SDS011;9503;53.560;10.246;2023-07-24T07:56:12;4.75;;;3.65;;
18748;SDS011;9503;53.560;10.246;2023-07-24T07:58:39;4.30;;;3.50;;
18748;SDS011;9503;53.560;10.246;2023-07-24T08:01:07;3.78;;;3.42;;
18748;SDS011;9503;53.560;10.246;2023-07-24T08:03:33;4.22;;;3.83;;
18748;SDS011;9503;53.560;10.246;2023-07-24T08:06:00;3.70;;;3.30;;
18748;SDS011;9503;53.560;10.246;2023-07-24T08:08:27;3.40;;;3.10;;
18748;SDS011;9503;53.560;10.246;2023-07-24T08:10:53;3.63;;;3.20;;
18748;SDS011;9503;53.560;10.246;2023-07-24T08:13:20;5.63;;;3.50;;
18748;SDS011;9503;53.560;10.246;2023-07-24T08:15:47;3.35;;;3.13;;
18748;SDS011;9503;53.560;10.246;2023-07-24T08:18:15;6.72;;;4.13;;
18748;SDS011;9503;53.560;10.246;2023-07-24T08:20:42;4.25;;;3.85;;
18748;SDS011;9503;53.560;10.246;2023-07-24T08:23:08;5.97;;;4.07;;
18748;SDS011;9503;53.560;10.246;2023-07-24T08:25:35;7.30;;;4.35;;
18748;SDS011;9503;53.560;10.246;2023-07-24T08:28:01;5.13;;;4.35;;
18748;SDS011;9503;53.560;10.246;2023-07-24T08:30:29;4.80;;;3.95;;
18748;SDS011;9503;53.560;10.246;2023-07-24T08:32:56;4.70;;;4.13;;
18748;SDS011;9503;53.560;10.246;2023-07-24T08:35:25;4.05;;;3.75;;
18748;SDS011;9503;53.560;10.246;2023-07-24T08:37:52;4.93;;;4.32;;
18748;SDS011;9503;53.560;10.246;2023-07-24T08:40:18;4.80;;;4.18;;
18748;SDS011;9503;53.560;10.246;2023-07-24T08:42:45;4.50;;;4.10;;
18748;SDS011;9503;53.560;10.246;2023-07-24T08:45:15;6.50;;;4.78;;
18748;SDS011;9503;53.560;10.246;2023-07-24T08:47:42;5.93;;;4.32;;
18748;SDS011;9503;53.560;10.246;2023-07-24T08:50:10;5.47;;;4.65;;
18748;SDS011;9503;53.560;10.246;2023-07-24T08:52:39;4.93;;;4.43;;
18748;SDS011;9503;53.560;10.246;2023-07-24T08:55:07;4.70;;;4.30;;
18748;SDS011;9503;53.560;10.246;2023-07-24T08:57:34;4.97;;;4.45;;
18748;SDS011;9503;53.560;10.246;2023-07-24T09:00:01;4.78;;;4.25;;
18748;SDS011;9503;53.560;10.246;2023-07-24T09:02:30;5.07;;;4.25;;
18748;SDS011;9503;53.560;10.246;2023-07-24T09:04:57;5.13;;;4.28;;
18748;SDS011;9503;53.560;10.246;2023-07-24T09:07:24;4.60;;;4.18;;
18748;SDS011;9503;53.560;10.246;2023-07-24T09:09:52;5.63;;;4.07;;
18748;SDS011;9503;53.560;10.246;2023-07-24T09:12:18;5.65;;;3.88;;
18748;SDS011;9503;53.560;10.246;2023-07-24T09:14:45;4.75;;;4.25;;
18748;SDS011;9503;53.560;10.246;2023-07-24T09:17:12;4.85;;;3.60;;
18748;SDS011;9503;53.560;10.246;2023-07-24T09:19:38;4.50;;;4.10;;
18748;SDS011;9503;53.560;10.246;2023-07-24T09:22:08;4.85;;;4.38;;
18748;SDS011;9503;53.560;10.246;2023-07-24T09:24:36;5.88;;;3.85;;
18748;SDS011;9503;53.560;10.246;2023-07-24T09:27:06;5.18;;;4.40;;
18748;SDS011;9503;53.560;10.246;2023-07-24T09:29:33;5.03;;;4.00;;
18748;SDS011;9503;53.560;10.246;2023-07-24T09:32:00;4.80;;;3.90;;
18748;SDS011;9503;53.560;10.246;2023-07-24T09:34:28;4.78;;;4.28;;
18748;SDS011;9503;53.560;10.246;2023-07-24T09:36:55;4.57;;;4.15;;
18748;SDS011;9503;53.560;10.246;2023-07-24T09:39:24;6.57;;;4.50;;
18748;SDS011;9503;53.560;10.246;2023-07-24T09:41:52;5.53;;;4.22;;
18748;SDS011;9503;53.560;10.246;2023-07-24T09:44:21;4.90;;;4.50;;
18748;SDS011;9503;53.560;10.246;2023-07-24T09:46:51;7.18;;;6.20;;
18748;SDS011;9503;53.560;10.246;2023-07-24T09:49:18;8.25;;;6.78;;
18748;SDS011;9503;53.560;10.246;2023-07-24T09:51:45;8.27;;;6.97;;
18748;SDS011;9503;53.560;10.246;2023-07-24T09:54:15;7.22;;;6.53;;
18748;SDS011;9503;53.560;10.246;2023-07-24T09:56:48;8.27;;;7.35;;
18748;SDS011;9503;53.560;10.246;2023-07-24T09:59:17;8.68;;;7.55;;
18748;SDS011;9503;53.560;10.246;2023-07-24T10:01:47;7.82;;;6.68;;
18748;SDS011;9503;53.560;10.246;2023-07-24T10:04:15;8.80;;;7.18;;
18748;SDS011;9503;53.560;10.246;2023-07-24T10:06:42;8.93;;;7.70;;
18748;SDS011;9503;53.560;10.246;2023-07-24T10:09:09;9.85;;;7.25;;
18748;SDS011;9503;53.560;10.246;2023-07-24T10:11:37;8.50;;;7.60;;
18748;SDS011;9503;53.560;10.246;2023-07-24T10:14:04;9.00;;;7.20;;
18748;SDS011;9503;53.560;10.246;2023-07-24T10:16:31;7.50;;;6.75;;
18748;SDS011;9503;53.560;10.246;2023-07-24T10:19:00;8.18;;;6.90;;
18748;SDS011;9503;53.560;10.246;2023-07-24T10:21:27;8.48;;;6.70;;
18748;SDS011;9503;53.560;10.246;2023-07-24T10:23:54;8.23;;;6.63;;
18748;SDS011;9503;53.560;10.246;2023-07-24T10:26:24;9.43;;;7.53;;
18748;SDS011;9503;53.560;10.246;2023-07-24T10:28:51;9.52;;;8.10;;
18748;SDS011;9503;53.560;10.246;2023-07-24T10:31:19;7.88;;;7.07;;
18748;SDS011;9503;53.560;10.246;2023-07-24T10:33:47;7.05;;;6.35;;
18748;SDS011;9503;53.560;10.246;2023-07-24T10:36:17;7.95;;;6.93;;
18748;SDS011;9503;53.560;10.246;2023-07-24T10:38:46;10.60;;;7.63;;
18748;SDS011;9503;53.560;10.246;2023-07-24T10:41:17;9.68;;;7.45;;
18748;SDS011;9503;53.560;10.246;2023-07-24T10:43:45;8.63;;;7.82;;
18748;SDS011;9503;53.560;10.246;2023-07-24T10:46:13;7.20;;;6.57;;
18748;SDS011;9503;53.560;10.246;2023-07-24T10:48:42;8.48;;;7.43;;
18748;SDS011;9503;53.560;10.246;2023-07-24T10:51:09;8.02;;;7.10;;
18748;SDS011;9503;53.560;10.246;2023-07-24T10:53:41;8.07;;;7.13;;
18748;SDS011;9503;53.560;10.246;2023-07-24T10:56:10;9.82;;;7.18;;
18748;SDS011;9503;53.560;10.246;2023-07-24T10:58:37;7.78;;;6.97;;
18748;SDS011;9503;53.560;10.246;2023-07-24T11:01:04;9.25;;;7.15;;
18748;SDS011;9503;53.560;10.246;2023-07-24T11:03:32;8.45;;;7.43;;
18748;SDS011;9503;53.560;10.246;2023-07-24T11:05:59;8.27;;;7.47;;
18748;SDS011;9503;53.560;10.246;2023-07-24T11:08:25;8.07;;;6.75;;
18748;SDS011;9503;53.560;10.246;2023-07-24T11:10:55;7.68;;;6.88;;
18748;SDS011;9503;53.560;10.246;2023-07-24T11:13:23;8.57;;;7.47;;
18748;SDS011;9503;53.560;10.246;2023-07-24T11:15:50;12.88;;;8.63;;
18748;SDS011;9503;53.560;10.246;2023-07-24T11:18:18;9.15;;;7.50;;
18748;SDS011;9503;53.560;10.246;2023-07-24T11:20:48;14.45;;;10.82;;
18748;SDS011;9503;53.560;10.246;2023-07-24T11:23:16;8.25;;;7.05;;
18748;SDS011;9503;53.560;10.246;2023-07-24T11:25:43;8.43;;;6.97;;
18748;SDS011;9503;53.560;10.246;2023-07-24T11:28:12;10.68;;;6.80;;
18748;SDS011;9503;53.560;10.246;2023-07-24T11:30:40;6.55;;;5.88;;
18748;SDS011;9503;53.560;10.246;2023-07-24T11:33:09;7.80;;;6.50;;
18748;SDS011;9503;53.560;10.246;2023-07-24T11:35:37;7.65;;;6.03;;
18748;SDS011;9503;53.560;10.246;2023-07-24T11:38:05;6.53;;;5.88;;
18748;SDS011;9503;53.560;10.246;2023-07-24T11:40:35;7.20;;;5.70;;
18748;SDS011;9503;53.560;10.246;2023-07-24T11:43:03;6.03;;;5.43;;
18748;SDS011;9503;53.560;10.246;2023-07-24T11:45:39;6.38;;;5.72;;
18748;SDS011;9503;53.560;10.246;2023-07-24T11:48:08;6.75;;;6.00;;
18748;SDS011;9503;53.560;10.246;2023-07-24T11:50:41;6.40;;;5.40;;
18748;SDS011;9503;53.560;10.246;2023-07-24T11:53:18;6.20;;;5.60;;
18748;SDS011;9503;53.560;10.246;2023-07-24T11:55:45;7.63;;;6.80;;
18748;SDS011;9503;53.560;10.246;2023-07-24T11:58:14;9.93;;;6.45;;
18748;SDS011;9503;53.560;10.246;2023-07-24T12:00:43;11.20;;;5.95;;
18748;SDS011;9503;53.560;10.246;2023-07-24T12:03:09;9.27;;;6.90;;
18748;SDS011;9503;53.560;10.246;2023-07-24T12:05:39;7.22;;;6.63;;
18748;SDS011;9503;53.560;10.246;2023-07-24T12:08:07;7.25;;;6.55;;
18748;SDS011;9503;53.560;10.246;2023-07-24T12:10:35;7.20;;;6.50;;
18748;SDS011;9503;53.560;10.246;2023-07-24T12:13:03;6.50;;;5.90;;
18748;SDS011;9503;53.560;10.246;2023-07-24T12:15:30;7.63;;;6.93;;
18748;SDS011;9503;53.560;10.246;2023-07-24T12:17:59;8.70;;;5.80;;
18748;SDS011;9503;53.560;10.246;2023-07-24T12:20:26;5.80;;;5.30;;
18748;SDS011;9503;53.560;10.246;2023-07-24T12:22:53;5.70;;;5.20;;
18748;SDS011;9503;53.560;10.246;2023-07-24T12:25:20;6.03;;;5.40;;
18748;SDS011;9503;53.560;10.246;2023-07-24T12:27:47;5.97;;;5.47;;
18748;SDS011;9503;53.560;10.246;2023-07-24T12:30:14;6.28;;;5.68;;
18748;SDS011;9503;53.560;10.246;2023-07-24T12:32:40;5.10;;;4.70;;
18748;SDS011;9503;53.560;10.246;2023-07-24T12:35:09;4.78;;;4.38;;
18748;SDS011;9503;53.560;10.246;2023-07-24T12:37:36;5.25;;;4.30;;
18748;SDS011;9503;53.560;10.246;2023-07-24T12:40:04;4.10;;;3.80;;
18748;SDS011;9503;53.560;10.246;2023-07-24T12:42:32;3.95;;;3.63;;
18748;SDS011;9503;53.560;10.246;2023-07-24T12:44:59;4.60;;;4.20;;
18748;SDS011;9503;53.560;10.246;2023-07-24T12:47:27;4.60;;;4.28;;
18748;SDS011;9503;53.560;10.246;2023-07-24T12:49:54;4.60;;;4.20;;
18748;SDS011;9503;53.560;10.246;2023-07-24T12:52:24;4.88;;;3.78;;
18748;SDS011;9503;53.560;10.246;2023-07-24T12:54:50;4.03;;;3.72;;
18748;SDS011;9503;53.560;10.246;2023-07-24T12:57:17;4.80;;;3.90;;
18748;SDS011;9503;53.560;10.246;2023-07-24T12:59:44;4.60;;;4.20;;
18748;SDS011;9503;53.560;10.246;2023-07-24T13:02:10;4.43;;;4.03;;
18748;SDS011;9503;53.560;10.246;2023-07-24T13:04:37;4.35;;;3.88;;
18748;SDS011;9503;53.560;10.246;2023-07-24T13:07:04;4.00;;;3.70;;
18748;SDS011;9503;53.560;10.246;2023-07-24T13:09:32;4.65;;;4.20;;
18748;SDS011;9503;53.560;10.246;2023-07-24T13:11:59;4.65;;;4.22;;
18748;SDS011;9503;53.560;10.246;2023-07-24T13:14:26;4.05;;;3.75;;
18748;SDS011;9503;53.560;10.246;2023-07-24T13:16:52;4.22;;;3.90;;
18748;SDS011;9503;53.560;10.246;2023-07-24T13:19:19;4.78;;;4.13;;
18748;SDS011;9503;53.560;10.246;2023-07-24T13:21:46;4.28;;;3.88;;
18748;SDS011;9503;53.560;10.246;2023-07-24T13:24:12;4.80;;;3.67;;
18748;SDS011;9503;53.560;10.246;2023-07-24T13:26:40;3.33;;;3.13;;
18748;SDS011;9503;53.560;10.246;2023-07-24T13:29:07;4.88;;;3.80;;
18748;SDS011;9503;53.560;10.246;2023-07-24T13:31:34;4.18;;;3.88;;
18748;SDS011;9503;53.560;10.246;2023-07-24T13:34:02;3.72;;;3.42;;
18748;SDS011;9503;53.560;10.246;2023-07-24T13:36:28;3.78;;;3.47;;
18748;SDS011;9503;53.560;10.246;2023-07-24T13:38:55;3.55;;;3.25;;
18748;SDS011;9503;53.560;10.246;2023-07-24T13:41:22;3.95;;;3.55;;
18748;SDS011;9503;53.560;10.246;2023-07-24T13:43:50;4.28;;;3.10;;
18748;SDS011;9503;53.560;10.246;2023-07-24T13:46:17;2.97;;;2.78;;
18748;SDS011;9503;53.560;10.246;2023-07-24T13:48:43;3.92;;;3.63;;
18748;SDS011;9503;53.560;10.246;2023-07-24T13:51:10;3.35;;;2.90;;
18748;SDS011;9503;53.560;10.246;2023-07-24T13:53:37;3.70;;;3.40;;
18748;SDS011;9503;53.560;10.246;2023-07-24T13:56:04;6.43;;;3.70;;
18748;SDS011;9503;53.560;10.246;2023-07-24T13:58:31;3.58;;;3.22;;
18748;SDS011;9503;53.560;10.246;2023-07-24T14:00:59;3.85;;;3.55;;
18748;SDS011;9503;53.560;10.246;2023-07-24T14:03:26;3.83;;;3.53;;
18748;SDS011;9503;53.560;10.246;2023-07-24T14:05:54;3.65;;;3.35;;
18748;SDS011;9503;53.560;10.246;2023-07-24T14:08:21;4.15;;;3.70;;
18748;SDS011;9503;53.560;10.246;2023-07-24T14:10:48;4.03;;;3.67;;
18748;SDS011;9503;53.560;10.246;2023-07-24T14:13:15;4.18;;;3.78;;
18748;SDS011;9503;53.560;10.246;2023-07-24T14:15:41;4.10;;;3.80;;
18748;SDS011;9503;53.560;10.246;2023-07-24T14:18:09;5.45;;;3.67;;
18748;SDS011;9503;53.560;10.246;2023-07-24T14:20:36;4.43;;;3.67;;
18748;SDS011;9503;53.560;10.246;2023-07-24T14:23:05;4.60;;;4.20;;
18748;SDS011;9503;53.560;10.246;2023-07-24T14:25:32;4.30;;;3.90;;
18748;SDS011;9503;53.560;10.246;2023-07-24T14:27:59;4.22;;;3.70;;
18748;SDS011;9503;53.560;10.246;2023-07-24T14:30:25;3.65;;;3.35;;
18748;SDS011;9503;53.560;10.246;2023-07-24T14:32:52;3.35;;;3.10;;
18748;SDS011;9503;53.560;10.246;2023-07-24T14:35:20;5.05;;;3.92;;
18748;SDS011;9503;53.560;10.246;2023-07-24T14:37:47;3.42;;;3.13;;
18748;SDS011;9503;53.560;10.246;2023-07-24T14:40:13;4.40;;;3.50;;
18748;SDS011;9503;53.560;10.246;2023-07-24T14:42:40;3.58;;;3.25;;
18748;SDS011;9503;53.560;10.246;2023-07-24T14:45:07;4.03;;;3.63;;
18748;SDS011;9503;53.560;10.246;2023-07-24T14:47:34;4.22;;;3.92;;